createdAt,value
2022-12-20T00:02:01.095Z,22.07
2022-12-20T00:04:06.541Z,22.03
2022-12-20T00:06:11.015Z,21.27
2022-12-20T00:08:14.272Z,20.67
2022-12-20T00:10:17.284Z,20.60
2022-12-20T00:12:21.701Z,21.50
2022-12-20T00:14:24.642Z,21.03
2022-12-20T00:16:29.164Z,22.90
2022-12-20T00:18:32.168Z,21.03
2022-12-20T00:20:36.425Z,24.77
2022-12-20T00:22:39.488Z,20.93
2022-12-20T00:24:42.599Z,20.87
2022-12-20T00:26:45.754Z,23.23
2022-12-20T00:28:50.360Z,21.13
2022-12-20T00:30:55.226Z,20.17
2022-12-20T00:32:58.220Z,20.93
2022-12-20T00:35:01.189Z,21.70
2022-12-20T00:37:04.097Z,21.33
2022-12-20T00:39:06.978Z,21.77
2022-12-20T00:41:12.724Z,20.93
2022-12-20T00:43:15.729Z,19.90
2022-12-20T00:45:20.418Z,20.60
2022-12-20T00:47:23.771Z,23.53
2022-12-20T00:49:26.766Z,19.57
2022-12-20T00:51:31.976Z,20.43
2022-12-20T00:53:35.555Z,22.37
2022-12-20T00:55:42.621Z,18.93
2022-12-20T00:57:45.600Z,24.07
2022-12-20T00:59:48.527Z,20.43
2022-12-20T01:01:53.303Z,20.00
2022-12-20T01:03:56.776Z,21.17
2022-12-20T01:06:01.657Z,22.90
2022-12-20T01:08:05.003Z,20.03
2022-12-20T01:10:09.303Z,19.07
2022-12-20T01:12:12.342Z,18.73
2022-12-20T01:14:16.918Z,23.63
2022-12-20T01:16:22.102Z,18.93
2022-12-20T01:18:26.517Z,25.00
2022-12-20T01:20:29.529Z,21.03
2022-12-20T01:22:32.518Z,23.70
2022-12-20T01:24:35.546Z,21.33
2022-12-20T01:26:38.696Z,22.23
2022-12-20T01:28:43.265Z,21.43
2022-12-20T01:30:46.443Z,23.57
2022-12-20T01:32:49.432Z,22.47
2022-12-20T01:34:55.207Z,24.50
2022-12-20T01:36:58.180Z,22.23
2022-12-20T01:39:03.530Z,21.33
2022-12-20T01:41:07.431Z,19.40
2022-12-20T01:43:13.452Z,20.87
2022-12-20T01:45:24.242Z,21.10
2022-12-20T01:47:31.024Z,19.97
2022-12-20T01:49:37.208Z,22.30
2022-12-20T01:51:45.153Z,21.30
2022-12-20T01:53:49.948Z,25.23
2022-12-20T01:55:53.273Z,22.10
2022-12-20T01:58:00.733Z,22.63
2022-12-20T02:00:04.985Z,22.87
2022-12-20T02:02:10.941Z,24.90
2022-12-20T02:04:14.329Z,22.50
2022-12-20T02:06:19.474Z,21.07
2022-12-20T02:08:23.765Z,20.43
2022-12-20T02:10:34.502Z,23.20
2022-12-20T02:12:42.514Z,19.17
2022-12-20T02:15:02.161Z,19.60
2022-12-20T02:17:14.023Z,18.33
2022-12-20T02:19:43.086Z,22.27
2022-12-20T02:21:49.793Z,19.60
2022-12-20T02:24:22.439Z,22.50
2022-12-20T02:27:02.434Z,19.70
2022-12-20T02:29:19.855Z,19.77
2022-12-20T02:31:28.575Z,20.23
2022-12-20T02:33:31.662Z,19.17
2022-12-20T02:35:39.701Z,21.00
2022-12-20T02:37:49.937Z,22.57
2022-12-20T02:39:52.901Z,19.40
2022-12-20T02:41:58.667Z,20.03
2022-12-20T02:44:23.137Z,17.50
2022-12-20T02:46:28.525Z,20.30
2022-12-20T02:48:35.139Z,17.57
2022-12-20T02:50:40.830Z,22.47
2022-12-20T02:52:43.807Z,23.13
2022-12-20T02:54:46.930Z,20.20
2022-12-20T02:56:54.214Z,19.27
2022-12-20T02:59:02.334Z,20.07
2022-12-20T03:01:11.683Z,23.13
2022-12-20T03:03:25.297Z,20.20
2022-12-20T03:05:29.074Z,19.37
2022-12-20T03:07:35.443Z,19.63
2022-12-20T03:09:40.530Z,19.17
2022-12-20T03:11:43.654Z,18.77
2022-12-20T03:13:46.535Z,20.47
2022-12-20T03:15:49.578Z,20.47
2022-12-20T03:17:52.453Z,21.67
2022-12-20T03:19:56.740Z,21.13
2022-12-20T03:22:00.223Z,18.93
2022-12-20T03:24:03.118Z,21.20
2022-12-20T03:26:06.207Z,18.13
2022-12-20T03:28:09.150Z,17.67
2022-12-20T03:30:13.185Z,21.80
2022-12-20T03:32:16.188Z,19.03
2022-12-20T03:34:19.231Z,19.70
2022-12-20T03:36:24.198Z,20.00
2022-12-20T03:38:27.130Z,17.30
2022-12-20T03:40:30.058Z,18.33
2022-12-20T03:42:33.133Z,17.60
2022-12-20T03:44:36.248Z,17.80
2022-12-20T03:46:39.329Z,16.70
2022-12-20T03:48:42.343Z,18.50
2022-12-20T03:50:45.272Z,20.47
2022-12-20T03:52:49.488Z,17.03
2022-12-20T03:54:52.473Z,19.37
2022-12-20T03:56:55.434Z,17.10
2022-12-20T03:58:58.367Z,19.70
2022-12-20T04:01:01.462Z,18.40
2022-12-20T04:03:04.583Z,17.13
2022-12-20T04:05:08.624Z,16.03
2022-12-20T04:07:12.387Z,17.17
2022-12-20T04:09:16.809Z,17.67
2022-12-20T04:11:19.772Z,15.70
2022-12-20T04:13:22.691Z,14.37
2022-12-20T04:15:25.660Z,15.63
2022-12-20T04:17:28.826Z,14.70
2022-12-20T04:19:31.908Z,17.47
2022-12-20T04:21:36.198Z,16.20
2022-12-20T04:23:41.054Z,15.10
2022-12-20T04:25:45.408Z,18.03
2022-12-20T04:27:48.347Z,16.83
2022-12-20T04:29:51.407Z,13.77
2022-12-20T04:31:54.476Z,15.43
2022-12-20T04:33:57.489Z,14.57
2022-12-20T04:36:00.373Z,12.57
2022-12-20T04:38:03.367Z,13.63
2022-12-20T04:40:07.595Z,13.00
2022-12-20T04:42:12.386Z,13.80
2022-12-20T04:44:15.296Z,15.30
2022-12-20T04:46:18.730Z,13.10
2022-12-20T04:48:55.040Z,13.30
2022-12-20T04:50:44.699Z,14.23
2022-12-20T04:53:05.017Z,14.43
2022-12-20T04:55:08.497Z,14.07
2022-12-20T04:57:12.690Z,15.70
2022-12-20T04:59:15.746Z,12.80
2022-12-20T05:01:19.734Z,14.50
2022-12-20T05:03:24.058Z,14.93
2022-12-20T05:05:27.830Z,13.00
2022-12-20T05:07:30.932Z,15.67
2022-12-20T05:09:33.829Z,14.73
2022-12-20T05:11:36.894Z,13.87
2022-12-20T05:13:41.643Z,14.20
2022-12-20T05:15:44.913Z,15.43
2022-12-20T05:17:47.993Z,13.03
2022-12-20T05:19:51.039Z,15.80
2022-12-20T05:22:11.455Z,16.73
2022-12-20T05:24:31.973Z,17.00
2022-12-20T05:26:37.734Z,13.93
2022-12-20T05:28:42.236Z,14.40
2022-12-20T05:30:45.204Z,11.70
2022-12-20T05:32:48.253Z,15.67
2022-12-20T05:34:51.331Z,15.13
2022-12-20T05:36:54.401Z,12.60
2022-12-20T05:39:03.618Z,12.03
2022-12-20T05:41:08.602Z,13.43
2022-12-20T05:43:11.732Z,13.07
2022-12-20T05:45:16.132Z,16.47
2022-12-20T05:47:19.009Z,16.20
2022-12-20T05:49:21.967Z,14.80
2022-12-20T05:51:24.956Z,13.77
2022-12-20T05:53:27.959Z,15.97
2022-12-20T05:55:31.869Z,15.13
2022-12-20T05:57:35.005Z,14.13
2022-12-20T05:59:38.027Z,15.37
2022-12-20T06:01:42.476Z,12.90
2022-12-20T06:03:46.074Z,16.07
2022-12-20T06:05:49.163Z,15.40
2022-12-20T06:07:52.415Z,14.47
2022-12-20T06:09:55.545Z,13.27
2022-12-20T06:11:58.691Z,16.13
2022-12-20T06:14:01.717Z,13.63
2022-12-20T06:16:05.131Z,14.27
2022-12-20T06:18:09.735Z,16.83
2022-12-20T06:20:13.340Z,13.67
2022-12-20T06:22:16.258Z,13.30
2022-12-20T06:24:19.285Z,15.70
2022-12-20T06:26:23.300Z,15.30
2022-12-20T06:28:26.443Z,14.17
2022-12-20T06:30:33.824Z,13.40
2022-12-20T06:32:37.051Z,15.77
2022-12-20T06:34:41.443Z,15.60
2022-12-20T06:36:44.589Z,13.60
2022-12-20T06:38:47.679Z,14.90
2022-12-20T06:40:50.774Z,12.83
2022-12-20T06:42:54.013Z,14.47
2022-12-20T06:44:57.027Z,13.10
2022-12-20T06:47:00.204Z,15.57
2022-12-20T06:49:03.180Z,15.30
2022-12-20T06:51:07.515Z,16.67
2022-12-20T06:53:10.418Z,17.27
2022-12-20T06:55:13.470Z,17.67
2022-12-20T06:57:16.512Z,15.90
2022-12-20T06:59:19.703Z,16.13
2022-12-20T07:01:22.776Z,14.00
2022-12-20T07:03:26.082Z,16.03
2022-12-20T07:05:29.208Z,15.20
2022-12-20T07:07:37.265Z,15.37
2022-12-20T07:09:43.703Z,15.57
2022-12-20T07:11:46.680Z,16.80
2022-12-20T07:13:50.239Z,15.70
2022-12-20T07:15:59.270Z,19.23
2022-12-20T07:18:02.346Z,16.03
2022-12-20T07:20:12.943Z,18.57
2022-12-20T07:22:16.860Z,16.70
2022-12-20T07:24:21.283Z,16.00
2022-12-20T07:26:24.209Z,16.03
2022-12-20T07:28:29.402Z,15.90
2022-12-20T07:30:32.600Z,15.53
2022-12-20T07:32:35.696Z,16.37
2022-12-20T07:34:39.002Z,17.90
2022-12-20T07:36:42.626Z,18.23
2022-12-20T07:38:45.628Z,14.23
2022-12-20T07:40:50.609Z,17.40
2022-12-20T07:42:53.568Z,17.77
2022-12-20T07:44:56.706Z,16.00
2022-12-20T07:46:59.896Z,18.07
2022-12-20T07:49:03.004Z,15.53
2022-12-20T07:51:10.296Z,16.17
2022-12-20T07:53:13.231Z,14.83
2022-12-20T07:55:16.434Z,15.50
2022-12-20T07:57:24.687Z,15.60
2022-12-20T07:59:34.500Z,15.40
2022-12-20T08:01:37.791Z,15.10
2022-12-20T08:03:45.662Z,16.77
2022-12-20T08:05:52.262Z,12.57
2022-12-20T08:07:59.561Z,14.80
2022-12-20T08:10:03.056Z,15.10
2022-12-20T08:12:06.576Z,11.80
2022-12-20T08:14:11.645Z,12.53
2022-12-20T08:16:14.825Z,11.73
2022-12-20T08:18:17.841Z,14.00
2022-12-20T08:20:20.953Z,12.97
2022-12-20T08:22:24.332Z,12.53
2022-12-20T08:24:27.270Z,12.13
2022-12-20T08:26:30.320Z,14.93
2022-12-20T08:28:33.788Z,11.83
2022-12-20T08:30:38.602Z,13.87
2022-12-20T08:32:41.553Z,13.33
2022-12-20T08:34:44.540Z,13.50
2022-12-20T08:36:47.540Z,13.17
2022-12-20T08:38:50.664Z,14.90
2022-12-20T08:40:53.659Z,14.73
2022-12-20T08:42:56.589Z,11.90
2022-12-20T08:44:59.541Z,11.77
2022-12-20T08:47:03.886Z,16.13
2022-12-20T08:49:07.522Z,13.30
2022-12-20T08:51:12.103Z,13.27
2022-12-20T08:53:15.087Z,13.27
2022-12-20T08:55:22.002Z,14.77
2022-12-20T08:57:27.669Z,17.13
2022-12-20T08:59:30.616Z,13.93
2022-12-20T09:01:34.737Z,17.57
2022-12-20T09:03:40.505Z,14.60
2022-12-20T09:05:48.024Z,13.83
2022-12-20T09:07:50.905Z,14.33
2022-12-20T09:09:53.934Z,13.80
2022-12-20T09:11:57.371Z,13.00
2022-12-20T09:14:00.672Z,13.03
2022-12-20T09:16:04.546Z,13.53
2022-12-20T09:18:07.700Z,13.87
2022-12-20T09:20:12.684Z,14.50
2022-12-20T09:22:15.634Z,12.40
2022-12-20T09:24:18.608Z,15.97
2022-12-20T09:26:22.548Z,15.37
2022-12-20T09:28:25.439Z,14.77
2022-12-20T09:30:28.405Z,13.40
2022-12-20T09:32:31.373Z,14.00
2022-12-20T09:34:34.254Z,14.33
2022-12-20T09:36:38.686Z,13.80
2022-12-20T09:38:41.636Z,12.67
2022-12-20T09:40:48.438Z,14.20
2022-12-20T09:42:53.276Z,12.13
2022-12-20T09:45:02.309Z,12.77
2022-12-20T09:47:10.901Z,10.80
2022-12-20T09:49:18.204Z,12.50
2022-12-20T09:51:39.189Z,11.90
2022-12-20T09:53:54.150Z,10.67
2022-12-20T09:56:04.290Z,16.53
2022-12-20T09:58:22.545Z,11.23
2022-12-20T10:00:25.467Z,12.10
2022-12-20T10:04:55.403Z,10.33
2022-12-20T10:07:13.292Z,9.80
2022-12-20T10:09:33.812Z,11.03
2022-12-20T10:11:54.883Z,10.90
2022-12-20T10:14:07.224Z,12.77
2022-12-20T10:16:23.227Z,13.57
2022-12-20T10:18:41.692Z,9.17
2022-12-20T10:20:55.302Z,10.67
2022-12-20T10:23:04.439Z,8.53
2022-12-20T10:25:18.231Z,9.43
2022-12-20T10:27:22.425Z,8.47
2022-12-20T10:29:25.323Z,9.40
2022-12-20T10:31:28.592Z,10.63
2022-12-20T10:33:32.632Z,9.30
2022-12-20T10:35:40.508Z,9.77
2022-12-20T10:38:09.938Z,9.27
2022-12-20T10:40:53.285Z,12.57
2022-12-20T10:42:51.748Z,12.63
2022-12-20T10:44:55.776Z,9.30
2022-12-20T10:47:01.041Z,8.97
2022-12-20T10:49:31.051Z,9.27
2022-12-20T10:51:34.307Z,12.13
2022-12-20T10:53:38.059Z,9.43
2022-12-20T10:55:43.486Z,9.43
2022-12-20T10:57:46.424Z,8.03
2022-12-20T10:59:52.784Z,6.93
2022-12-20T11:01:55.885Z,7.17
2022-12-20T11:04:01.977Z,8.67
2022-12-20T11:06:05.203Z,8.10
2022-12-20T11:08:35.319Z,8.43
2022-12-20T11:10:40.157Z,10.07
2022-12-20T11:12:54.353Z,9.33
2022-12-20T11:15:10.032Z,8.63
2022-12-20T11:17:29.294Z,8.80
2022-12-20T11:19:47.553Z,9.23
2022-12-20T11:21:55.723Z,9.73
2022-12-20T11:24:06.799Z,11.00
2022-12-20T11:26:30.154Z,11.80
2022-12-20T11:28:53.400Z,11.13
2022-12-20T11:31:10.183Z,9.67
2022-12-20T11:33:39.469Z,7.73
2022-12-20T11:35:50.622Z,8.10
2022-12-20T11:38:08.972Z,11.50
2022-12-20T11:40:25.408Z,9.40
2022-12-20T11:42:39.432Z,9.03
2022-12-20T11:45:03.522Z,9.67
2022-12-20T11:47:39.504Z,9.67
2022-12-20T11:49:59.984Z,11.37
2022-12-20T11:52:10.757Z,9.40
2022-12-20T11:54:20.338Z,6.83
2022-12-20T11:56:27.842Z,8.47
2022-12-20T11:58:38.238Z,9.37
2022-12-20T12:00:46.200Z,9.50
2022-12-20T12:02:58.658Z,9.10
2022-12-20T12:05:06.571Z,7.97
2022-12-20T12:07:14.875Z,8.40
2022-12-20T12:09:25.096Z,7.03
2022-12-20T12:12:05.980Z,9.13
2022-12-20T12:13:57.980Z,9.07
2022-12-20T12:16:09.410Z,8.27
2022-12-20T12:18:18.043Z,8.00
2022-12-20T12:20:28.677Z,9.27
2022-12-20T12:22:36.941Z,7.93
2022-12-20T12:24:44.646Z,8.70
2022-12-20T12:26:47.746Z,8.80
2022-12-20T12:28:55.693Z,10.20
2022-12-20T12:31:02.174Z,10.90
2022-12-20T12:33:16.480Z,9.00
2022-12-20T12:35:53.605Z,11.73
2022-12-20T12:38:18.637Z,8.10
2022-12-20T12:40:53.050Z,8.40
2022-12-20T12:43:20.582Z,7.90
2022-12-20T12:45:29.176Z,14.53
2022-12-20T12:47:39.001Z,9.40
2022-12-20T12:49:45.031Z,8.30
2022-12-20T12:51:53.207Z,8.93
2022-12-20T12:54:04.509Z,11.23
2022-12-20T12:56:47.165Z,9.53
2022-12-20T12:59:25.193Z,9.70
2022-12-20T13:01:49.511Z,12.23
2022-12-20T13:04:11.034Z,11.50
2022-12-20T13:06:55.028Z,11.07
2022-12-20T13:09:18.532Z,11.17
2022-12-20T13:11:31.242Z,12.27
2022-12-20T13:13:34.569Z,11.30
2022-12-20T13:16:11.387Z,10.77
2022-12-20T13:18:25.703Z,11.43
2022-12-20T13:20:30.352Z,11.80
2022-12-20T13:22:34.772Z,10.73
2022-12-20T13:24:53.344Z,12.07
2022-12-20T13:27:02.948Z,11.77
2022-12-20T13:29:24.968Z,9.90
2022-12-20T13:31:34.567Z,11.97
2022-12-20T13:33:42.842Z,10.23
2022-12-20T13:35:56.379Z,13.00
2022-12-20T13:38:04.709Z,11.67
2022-12-20T13:40:22.608Z,12.03
2022-12-20T13:42:38.293Z,10.63
2022-12-20T13:44:46.721Z,13.23
2022-12-20T13:46:55.402Z,11.23
2022-12-20T13:49:03.077Z,10.70
2022-12-20T13:51:08.107Z,12.43
2022-12-20T13:53:20.755Z,11.03
2022-12-20T13:55:31.863Z,11.60
2022-12-20T13:57:42.846Z,12.00
2022-12-20T13:59:48.342Z,13.13
2022-12-20T14:01:53.499Z,21.77
2022-12-20T14:03:56.683Z,31.83
2022-12-20T14:06:02.755Z,25.80
2022-12-20T14:08:09.211Z,35.03
2022-12-20T14:10:23.569Z,13.67
2022-12-20T14:12:32.895Z,25.03
2022-12-20T14:14:39.773Z,21.23
2022-12-20T14:16:43.083Z,21.33
2022-12-20T14:18:50.049Z,22.73
2022-12-20T14:20:56.429Z,14.27
2022-12-20T14:23:06.335Z,42.33
2022-12-20T14:25:13.767Z,31.73
2022-12-20T14:27:20.579Z,14.33
2022-12-20T14:29:30.045Z,76.47
2022-12-20T14:31:39.338Z,61.03
2022-12-20T14:33:43.544Z,28.20
2022-12-20T14:35:48.776Z,42.17
2022-12-20T14:37:56.983Z,14.93
2022-12-20T14:40:04.129Z,10.77
2022-12-20T14:42:15.431Z,10.23
2022-12-20T14:44:23.802Z,9.77
2022-12-20T14:46:26.783Z,9.07
2022-12-20T14:48:30.123Z,9.57
2022-12-20T14:50:34.672Z,10.20
2022-12-20T14:52:40.045Z,10.23
2022-12-20T14:57:16.836Z,18.03
2022-12-20T14:59:26.962Z,14.03
2022-12-20T15:01:37.179Z,9.70
2022-12-20T15:03:51.479Z,46.17
2022-12-20T15:05:56.336Z,28.13
2022-12-20T15:08:11.571Z,39.37
2022-12-20T15:10:14.983Z,94.07
2022-12-20T15:12:17.821Z,125.33
2022-12-20T15:14:36.725Z,46.13
2022-12-20T15:16:47.929Z,12.30
2022-12-20T15:18:52.240Z,17.63
2022-12-20T15:21:03.696Z,10.10
2022-12-20T15:23:07.190Z,9.03
2022-12-20T15:25:17.154Z,8.53
2022-12-20T15:27:20.183Z,10.27
2022-12-20T15:29:26.091Z,10.77
2022-12-20T15:31:33.727Z,10.30
2022-12-20T15:33:39.157Z,8.23
2022-12-20T15:35:42.130Z,10.43
2022-12-20T15:37:45.019Z,10.27
2022-12-20T15:39:47.959Z,9.07
2022-12-20T15:41:51.310Z,9.40
2022-12-20T15:43:57.795Z,9.47
2022-12-20T15:46:01.989Z,9.57
2022-12-20T15:48:05.115Z,8.77
2022-12-20T15:50:09.524Z,10.23
2022-12-20T15:52:20.641Z,9.90
2022-12-20T15:54:27.788Z,9.83
2022-12-20T15:56:31.693Z,8.33
2022-12-20T15:58:34.858Z,8.37
2022-12-20T16:00:41.124Z,10.87
2022-12-20T16:02:46.488Z,8.80
2022-12-20T16:04:50.562Z,12.63
2022-12-20T16:06:54.040Z,9.17
2022-12-20T16:08:56.943Z,8.87
2022-12-20T16:11:00.025Z,12.33
2022-12-20T16:13:02.936Z,9.47
2022-12-20T16:15:08.232Z,12.47
2022-12-20T16:17:14.968Z,8.70
2022-12-20T16:19:19.391Z,10.13
2022-12-20T16:21:24.139Z,8.30
2022-12-20T16:23:27.440Z,8.80
2022-12-20T16:25:32.207Z,8.50
2022-12-20T16:27:35.100Z,7.40
2022-12-20T16:29:38.408Z,8.43
2022-12-20T16:31:43.254Z,11.00
2022-12-20T16:33:46.115Z,9.87
2022-12-20T16:35:50.302Z,11.50
2022-12-20T16:37:53.294Z,9.90
2022-12-20T16:39:56.759Z,12.67
2022-12-20T16:41:59.880Z,8.07
2022-12-20T16:44:04.502Z,8.90
2022-12-20T16:46:07.556Z,9.33
2022-12-20T16:48:10.415Z,7.80
2022-12-20T16:50:14.015Z,8.17
2022-12-20T16:52:20.318Z,7.47
2022-12-20T16:54:23.669Z,8.97
2022-12-20T16:56:27.155Z,9.50
2022-12-20T16:59:00.095Z,7.63
2022-12-20T17:00:53.196Z,8.23
2022-12-20T17:02:56.929Z,7.43
2022-12-20T17:05:00.317Z,10.17
2022-12-20T17:07:05.515Z,10.17
2022-12-20T17:09:09.713Z,9.70
2022-12-20T17:11:17.950Z,8.50
2022-12-20T17:13:20.705Z,8.80
2022-12-20T17:15:25.400Z,10.73
2022-12-20T17:17:28.514Z,8.20
2022-12-20T17:19:31.377Z,8.80
2022-12-20T17:23:57.554Z,11.90
2022-12-20T17:26:01.766Z,8.43
2022-12-20T17:28:06.539Z,11.50
2022-12-20T17:30:10.775Z,9.37
2022-12-20T17:32:21.269Z,11.13
2022-12-20T17:34:26.294Z,12.87
2022-12-20T17:36:35.866Z,15.97
2022-12-20T17:38:40.640Z,12.40
2022-12-20T17:40:43.887Z,11.97
2022-12-20T17:42:49.131Z,11.73
2022-12-20T17:44:52.047Z,11.97
2022-12-20T17:46:56.017Z,10.57
2022-12-20T17:48:59.457Z,11.83
2022-12-20T17:51:02.869Z,8.50
2022-12-20T17:53:05.830Z,10.67
2022-12-20T17:55:13.826Z,8.50
2022-12-20T17:57:17.192Z,10.10
2022-12-20T17:59:22.358Z,7.60
2022-12-20T18:01:26.866Z,9.17
2022-12-20T18:04:02.268Z,9.57
2022-12-20T18:05:52.757Z,9.03
2022-12-20T18:07:56.989Z,9.10
2022-12-20T18:10:00.202Z,9.50
2022-12-20T18:12:03.345Z,9.83
2022-12-20T18:14:06.207Z,11.03
2022-12-20T18:16:11.451Z,11.30
2022-12-20T18:18:14.623Z,10.90
2022-12-20T18:20:17.838Z,9.67
2022-12-20T18:22:20.779Z,13.73
2022-12-20T18:24:23.631Z,9.73
2022-12-20T18:26:28.614Z,11.87
2022-12-20T18:28:31.475Z,9.10
2022-12-20T18:30:34.435Z,11.23
2022-12-20T18:32:38.807Z,10.23
2022-12-20T18:34:41.627Z,12.47
2022-12-20T18:36:44.414Z,8.43
2022-12-20T18:38:48.583Z,10.33
2022-12-20T18:40:52.102Z,11.37
2022-12-20T18:42:54.965Z,10.83
2022-12-20T18:44:58.095Z,12.13
2022-12-20T18:47:01.739Z,8.13
2022-12-20T18:49:05.952Z,12.17
2022-12-20T18:51:11.821Z,9.83
2022-12-20T18:53:14.765Z,9.07
2022-12-20T18:55:17.783Z,11.40
2022-12-20T18:57:20.542Z,9.80
2022-12-20T18:59:23.717Z,11.60
2022-12-20T19:01:28.704Z,9.87
2022-12-20T19:03:32.226Z,11.33
2022-12-20T19:05:36.470Z,11.13
2022-12-20T19:07:39.372Z,10.23
2022-12-20T19:09:42.171Z,12.87
2022-12-20T19:11:45.282Z,9.93
2022-12-20T19:13:48.955Z,10.20
2022-12-20T19:16:01.122Z,11.77
2022-12-20T19:18:03.963Z,11.00
2022-12-20T19:20:08.272Z,11.40
2022-12-20T19:22:12.999Z,12.47
2022-12-20T19:24:15.933Z,10.80
2022-12-20T19:26:20.543Z,12.10
2022-12-20T19:28:24.017Z,10.80
2022-12-20T19:30:27.818Z,11.43
2022-12-20T19:32:30.834Z,11.90
2022-12-20T19:34:33.654Z,11.03
2022-12-20T19:36:38.825Z,13.83
2022-12-20T19:38:45.643Z,10.57
2022-12-20T19:40:53.325Z,13.53
2022-12-20T19:42:56.269Z,11.97
2022-12-20T19:44:59.030Z,11.80
2022-12-20T19:47:05.032Z,12.37
2022-12-20T19:49:07.991Z,12.83
2022-12-20T19:51:12.540Z,11.60
2022-12-20T19:53:15.304Z,11.83
2022-12-20T19:55:19.515Z,13.97
2022-12-20T19:57:22.333Z,12.13
2022-12-20T19:59:25.109Z,11.43
2022-12-20T20:01:28.417Z,13.77
2022-12-20T20:03:32.495Z,11.63
2022-12-20T20:05:36.195Z,12.73
2022-12-20T20:07:39.033Z,16.63
2022-12-20T20:09:41.810Z,13.47
2022-12-20T20:11:46.044Z,16.07
2022-12-20T20:13:48.941Z,45.73
2022-12-20T20:15:52.545Z,27.87
2022-12-20T20:17:55.768Z,18.07
2022-12-20T20:19:58.916Z,20.97
2022-12-20T20:22:02.654Z,15.77
2022-12-20T20:24:06.286Z,14.83
2022-12-20T20:26:11.053Z,14.63
2022-12-20T20:28:16.069Z,16.30
2022-12-20T20:30:19.149Z,15.17
2022-12-20T20:32:21.943Z,13.93
2022-12-20T20:34:24.833Z,15.73
2022-12-20T20:36:28.053Z,16.77
2022-12-20T20:38:33.032Z,18.57
2022-12-20T20:40:35.906Z,18.47
2022-12-20T20:42:41.510Z,15.43
2022-12-20T20:44:46.280Z,19.43
2022-12-20T20:46:49.204Z,16.10
2022-12-20T20:48:52.075Z,13.70
2022-12-20T20:50:54.944Z,12.30
2022-12-20T20:53:00.044Z,16.57
2022-12-20T20:55:03.138Z,16.13
2022-12-20T20:57:06.081Z,18.37
2022-12-20T20:59:13.444Z,16.00
2022-12-20T21:01:23.016Z,13.67
2022-12-20T21:03:27.286Z,16.67
2022-12-20T21:07:53.598Z,15.60
2022-12-20T21:09:56.975Z,15.93
2022-12-20T21:11:59.954Z,15.73
2022-12-20T21:14:02.917Z,13.83
2022-12-20T21:16:07.396Z,12.80
2022-12-20T21:18:12.074Z,13.77
2022-12-20T21:20:17.509Z,14.93
2022-12-20T21:22:22.399Z,13.00
2022-12-20T21:24:25.197Z,14.47
2022-12-20T21:26:28.032Z,12.50
2022-12-20T21:28:31.571Z,12.77
2022-12-20T21:30:34.802Z,13.10
2022-12-20T21:32:37.705Z,13.63
2022-12-20T21:34:42.072Z,14.30
2022-12-20T21:36:44.876Z,12.80
2022-12-20T21:38:51.396Z,14.37
2022-12-20T21:40:59.423Z,14.57
2022-12-20T21:43:02.193Z,13.33
2022-12-20T21:45:05.498Z,14.50
2022-12-20T21:47:08.579Z,16.23
2022-12-20T21:49:13.001Z,14.17
2022-12-20T21:51:19.826Z,15.67
2022-12-20T21:53:22.622Z,16.63
2022-12-20T21:55:25.436Z,20.60
2022-12-20T21:57:28.264Z,15.90
2022-12-20T21:59:31.219Z,16.27
2022-12-20T22:01:34.514Z,15.30
2022-12-20T22:03:38.473Z,15.57
2022-12-20T22:05:46.923Z,14.67
2022-12-20T22:07:51.745Z,12.27
2022-12-20T22:09:54.555Z,13.60
2022-12-20T22:11:57.449Z,15.60
2022-12-20T22:14:00.559Z,16.03
2022-12-20T22:16:07.914Z,13.73
2022-12-20T22:18:10.822Z,15.20
2022-12-20T22:20:14.054Z,16.43
2022-12-20T22:22:20.027Z,15.77
2022-12-20T22:24:24.437Z,13.57
2022-12-20T22:26:29.186Z,15.27
2022-12-20T22:28:32.119Z,14.43
2022-12-20T22:30:35.247Z,14.70
2022-12-20T22:32:38.029Z,17.93
2022-12-20T22:34:40.830Z,15.13
2022-12-20T22:36:43.701Z,18.40
2022-12-20T22:38:46.916Z,18.67
2022-12-20T22:40:51.895Z,18.67
2022-12-20T22:42:54.676Z,16.77
2022-12-20T22:44:57.566Z,17.43
2022-12-20T22:47:00.481Z,16.17
2022-12-20T22:49:03.395Z,15.03
2022-12-20T22:51:07.743Z,13.97
2022-12-20T22:53:10.547Z,16.73
2022-12-20T22:55:13.663Z,18.80
2022-12-20T22:57:18.021Z,16.23
2022-12-20T22:59:21.059Z,15.73
2022-12-20T23:01:24.259Z,18.90
2022-12-20T23:03:28.238Z,15.33
2022-12-20T23:05:31.134Z,17.83
2022-12-20T23:07:33.960Z,15.83
2022-12-20T23:09:36.728Z,17.30
2022-12-20T23:11:57.244Z,18.37
2022-12-20T23:14:18.922Z,16.43
2022-12-20T23:16:22.946Z,16.63
2022-12-20T23:18:25.883Z,17.37
2022-12-20T23:20:46.295Z,19.70
2022-12-20T23:22:49.144Z,19.30
2022-12-20T23:24:51.940Z,19.80
2022-12-20T23:26:54.794Z,19.10
2022-12-20T23:28:57.780Z,19.33
2022-12-20T23:31:04.337Z,18.83
2022-12-20T23:33:07.648Z,18.80
2022-12-20T23:35:12.805Z,15.17
2022-12-20T23:37:15.758Z,17.53
2022-12-20T23:39:18.627Z,14.80
2022-12-20T23:41:21.745Z,18.20
2022-12-20T23:43:24.534Z,16.80
2022-12-20T23:45:27.342Z,15.43
2022-12-20T23:47:32.126Z,12.87
2022-12-20T23:49:34.936Z,15.07
2022-12-20T23:51:37.809Z,15.27
2022-12-20T23:53:39.973Z,16.23
2022-12-20T23:55:42.782Z,16.83
2022-12-20T23:57:45.580Z,13.47
2022-12-20T23:59:48.608Z,17.47
